KBKT/BKT METAR and TAF weather

Enter ICAO airport designator
Station Type Date Time Source
KBKT METAR 2020/09/19 05:58 UTC NOAA

KBKT 190558Z AUTO 36008KT 10SM CLR 14/10 A3014 RMK AO2 SLP207 T01430102 10182 20143 52016


Station Type Date Time Source
KBKT Decoded METAR 2020/09/19 05:58 UTC NOAA

Ft. Pickett / Blackstone, VA, United States (KBKT) 37-05N 077-57W
Sep 19, 2020 - 01:58 AM EDT / 2020.09.19 0558 UTC
Wind: from the N (360 degrees) at 9 MPH (8 KT):0
Visibility: 10 mile(s):0
Sky conditions: clear
Temperature: 57.7 F (14.3 C)
Dew Point: 50.4 F (10.2 C)
Relative Humidity: 76%
Pressure (altimeter): 30.14 in. Hg (1020 hPa)
Pressure tendency: 0.05 inches (1.6 hPa) higher than three hours ago
ob: KBKT 190558Z AUTO 36008KT 10SM CLR 14/10 A3014 RMK AO2 SLP207 T01430102 10182 20143 52016
cycle: 6

Station Type Date Time Source
KBKT TAF UTC NOAA

Error!

Example: see airport list